Time;durP1;ratioP1;P1;durP2;ratioP2;P2;SDS_P1;SDS_P2;PMS_P1;PMS_P2;Temp;Humidity;BMP_temperature;BMP_pressure;BME280_temperature;BME280_humidity;BME280_pressure;Samples;Min_cycle;Max_cycle;Signal;HPM_P1;HPM_P2
2021/04/17 00:00:17;;;;;;;20.20;12.55;;;;;;;;;;5013708;28;20018;-72
2021/04/17 00:02:46;;;;;;;17.58;12.32;;;;;;;;;;5014348;28;20033;-72
2021/04/17 00:05:14;;;;;;;18.23;12.18;;;;;;;;;;5013586;28;20086;-72
2021/04/17 00:07:42;;;;;;;15.32;11.77;;;;;;;;;;5013939;28;20094;-71
2021/04/17 00:10:08;;;;;;;23.05;12.35;;;;;;;;;;5014430;28;20029;-71
2021/04/17 00:12:34;;;;;;;15.55;10.95;;;;;;;;;;5001155;28;20033;-72
2021/04/17 00:15:03;;;;;;;13.52;10.30;;;;;;;;;;4994713;28;20018;-71
2021/04/17 00:17:29;;;;;;;18.88;12.15;;;;;;;;;;4997766;28;20021;-72
2021/04/17 00:19:55;;;;;;;15.50;10.85;;;;;;;;;;5013840;28;20097;-72
2021/04/17 00:22:22;;;;;;;15.40;10.18;;;;;;;;;;4996803;28;20028;-72
2021/04/17 00:24:48;;;;;;;14.85;9.52;;;;;;;;;;5013262;28;20097;-72
2021/04/17 00:27:16;;;;;;;19.15;10.38;;;;;;;;;;5014076;28;20045;-73
2021/04/17 00:29:43;;;;;;;15.02;8.25;;;;;;;;;;5014045;28;20081;-73
2021/04/17 00:32:09;;;;;;;16.63;9.93;;;;;;;;;;5013663;28;20344;-72
2021/04/17 00:34:35;;;;;;;15.32;9.30;;;;;;;;;;5013683;28;20029;-72
2021/04/17 00:37:03;;;;;;;15.43;9.00;;;;;;;;;;5013568;28;20021;-71
2021/04/17 00:39:29;;;;;;;13.32;9.18;;;;;;;;;;5012548;28;20053;-73
2021/04/17 00:41:55;;;;;;;14.90;9.35;;;;;;;;;;5007865;28;20430;-73
2021/04/17 00:44:24;;;;;;;14.02;9.00;;;;;;;;;;4995174;28;20076;-73
2021/04/17 00:46:50;;;;;;;20.05;8.60;;;;;;;;;;4993234;28;20347;-73
2021/04/17 00:49:16;;;;;;;13.30;8.90;;;;;;;;;;4993838;28;20038;-72
2021/04/17 00:51:41;;;;;;;16.67;9.63;;;;;;;;;;5009282;28;20452;-72
2021/04/17 00:54:07;;;;;;;14.05;9.63;;;;;;;;;;5010253;28;20025;-73
2021/04/17 00:56:33;;;;;;;13.32;9.40;;;;;;;;;;5017197;28;20124;-72
2021/04/17 00:58:59;;;;;;;14.45;9.63;;;;;;;;;;5033890;28;20032;-72
2021/04/17 01:01:27;;;;;;;12.35;9.13;;;;;;;;;;5033736;28;20573;-71
2021/04/17 01:04:05;;;;;;;13.13;9.00;;;;;;;;;;5016037;28;20112;-72
2021/04/17 01:06:33;;;;;;;15.23;9.25;;;;;;;;;;5033493;28;20056;-72
2021/04/17 01:09:08;;;;;;;12.23;8.95;;;;;;;;;;5028073;28;20056;-73
2021/04/17 01:11:37;;;;;;;13.10;8.93;;;;;;;;;;5013812;28;20044;-72
2021/04/17 01:14:04;;;;;;;13.23;10.05;;;;;;;;;;5013144;28;20053;-72
2021/04/17 01:16:30;;;;;;;13.90;10.20;;;;;;;;;;5024091;28;20024;-72
2021/04/17 01:18:57;;;;;;;14.40;8.82;;;;;;;;;;5033160;28;20022;-72
2021/04/17 01:21:23;;;;;;;11.65;8.05;;;;;;;;;;5033442;28;20028;-72
2021/04/17 01:23:53;;;;;;;15.07;9.20;;;;;;;;;;5033469;28;20638;-72
2021/04/17 01:26:21;;;;;;;11.70;7.93;;;;;;;;;;5030720;28;20296;-72
2021/04/17 01:28:49;;;;;;;10.20;8.02;;;;;;;;;;5031490;28;20025;-73
2021/04/17 01:31:15;;;;;;;12.00;8.43;;;;;;;;;;5032721;28;20068;-73
2021/04/17 01:33:43;;;;;;;12.35;8.32;;;;;;;;;;5033046;28;20041;-72
2021/04/17 01:36:09;;;;;;;17.17;7.82;;;;;;;;;;5031248;28;20209;-74
2021/04/17 01:38:39;;;;;;;10.90;7.63;;;;;;;;;;5013387;28;20014;-73
2021/04/17 01:41:07;;;;;;;9.85;7.82;;;;;;;;;;5013783;28;20509;-73
2021/04/17 01:43:33;;;;;;;11.55;7.82;;;;;;;;;;5014291;28;20029;-73
2021/04/17 01:46:03;;;;;;;11.75;8.27;;;;;;;;;;5028320;28;20030;-73
2021/04/17 01:48:30;;;;;;;11.15;8.20;;;;;;;;;;5030010;28;20075;-73
2021/04/17 01:50:57;;;;;;;10.52;8.02;;;;;;;;;;5032636;28;20331;-74
2021/04/17 01:53:23;;;;;;;14.40;7.63;;;;;;;;;;5033000;28;20017;-73
2021/04/17 01:55:52;;;;;;;11.13;8.07;;;;;;;;;;5015369;28;20053;-73
2021/04/17 01:58:19;;;;;;;10.27;8.10;;;;;;;;;;5028783;28;20605;-73
2021/04/17 02:00:44;;;;;;;13.40;8.45;;;;;;;;;;5036004;28;20456;-72
2021/04/17 02:03:10;;;;;;;10.75;8.13;;;;;;;;;;5035843;28;20021;-73
2021/04/17 02:05:36;;;;;;;13.93;7.55;;;;;;;;;;4999591;28;20025;-73
2021/04/17 02:08:01;;;;;;;10.15;8.30;;;;;;;;;;5016692;28;20093;-73
2021/04/17 02:10:26;;;;;;;10.45;8.45;;;;;;;;;;5016626;28;20329;-72
2021/04/17 02:12:52;;;;;;;12.88;8.50;;;;;;;;;;5022275;28;20045;-73
2021/04/17 02:15:17;;;;;;;12.20;7.90;;;;;;;;;;5036126;28;20026;-72
2021/04/17 02:17:56;;;;;;;10.85;9.07;;;;;;;;;;5036201;28;20092;-71
2021/04/17 02:20:28;;;;;;;10.98;8.05;;;;;;;;;;5017781;28;20049;-73
2021/04/17 02:22:53;;;;;;;9.95;8.05;;;;;;;;;;5035974;28;20092;-74
2021/04/17 02:25:18;;;;;;;10.35;8.35;;;;;;;;;;5036018;28;20112;-73
2021/04/17 02:27:44;;;;;;;11.55;8.77;;;;;;;;;;5036161;28;20037;-73
2021/04/17 02:30:11;;;;;;;12.88;8.70;;;;;;;;;;5034941;28;20036;-73
2021/04/17 02:32:37;;;;;;;12.50;9.00;;;;;;;;;;5035619;28;20409;-74
2021/04/17 02:35:02;;;;;;;13.50;9.07;;;;;;;;;;5034958;28;20113;-74
2021/04/17 02:37:27;;;;;;;11.07;8.45;;;;;;;;;;5035824;28;20017;-74
2021/04/17 02:39:53;;;;;;;12.43;8.82;;;;;;;;;;5036015;28;20425;-74
2021/04/17 02:42:18;;;;;;;13.02;8.07;;;;;;;;;;5032186;28;20045;-74
2021/04/17 02:44:43;;;;;;;13.43;8.98;;;;;;;;;;5035570;28;20022;-74
2021/04/17 02:47:08;;;;;;;13.13;9.02;;;;;;;;;;5035754;28;20080;-74
2021/04/17 02:49:34;;;;;;;12.32;8.50;;;;;;;;;;5017663;28;20025;-74
2021/04/17 02:51:59;;;;;;;10.68;8.80;;;;;;;;;;5035470;28;20100;-73
2021/04/17 02:54:24;;;;;;;13.07;8.88;;;;;;;;;;5034823;28;20017;-73
2021/04/17 02:56:50;;;;;;;10.15;8.73;;;;;;;;;;5034930;28;20095;-73
2021/04/17 02:59:15;;;;;;;12.68;8.77;;;;;;;;;;5034767;28;20049;-74
2021/04/17 03:01:41;;;;;;;14.43;8.75;;;;;;;;;;5035471;28;20409;-74
2021/04/17 03:04:06;;;;;;;11.80;9.38;;;;;;;;;;5035374;28;20478;-72
2021/04/17 03:06:31;;;;;;;10.20;9.18;;;;;;;;;;5017715;28;20398;-73
2021/04/17 03:08:56;;;;;;;13.73;9.13;;;;;;;;;;5034806;28;20021;-72
2021/04/17 03:11:22;;;;;;;11.95;9.85;;;;;;;;;;5035265;28;20126;-73
2021/04/17 03:13:49;;;;;;;12.23;9.05;;;;;;;;;;5035408;28;20160;-73
2021/04/17 03:16:15;;;;;;;14.05;9.30;;;;;;;;;;5051774;28;20048;-73
2021/04/17 03:18:40;;;;;;;15.70;9.10;;;;;;;;;;5056015;28;20089;-73
2021/04/17 03:21:05;;;;;;;12.98;10.30;;;;;;;;;;5038821;28;20114;-73
2021/04/17 03:23:31;;;;;;;19.13;9.57;;;;;;;;;;5013724;28;20029;-73
2021/04/17 03:25:56;;;;;;;16.50;10.05;;;;;;;;;;4997675;28;20443;-73
2021/04/17 03:28:21;;;;;;;15.85;10.73;;;;;;;;;;5015206;28;20080;-73
2021/04/17 03:30:46;;;;;;;16.88;10.20;;;;;;;;;;5015247;28;20447;-73
2021/04/17 03:33:14;;;;;;;16.10;11.27;;;;;;;;;;5024293;28;20021;-73
2021/04/17 03:35:39;;;;;;;16.90;10.05;;;;;;;;;;5034718;28;20035;-73
2021/04/17 03:38:04;;;;;;;14.63;10.48;;;;;;;;;;5033525;28;20017;-73
2021/04/17 03:40:30;;;;;;;13.73;10.23;;;;;;;;;;5034515;28;20493;-72
2021/04/17 03:42:55;;;;;;;16.75;11.18;;;;;;;;;;5017551;28;20034;-73
2021/04/17 03:45:21;;;;;;;14.15;10.40;;;;;;;;;;5030610;28;20029;-73
2021/04/17 03:47:46;;;;;;;16.42;11.55;;;;;;;;;;5034408;28;20111;-73
2021/04/17 03:50:13;;;;;;;13.93;10.23;;;;;;;;;;5033360;28;20025;-73
2021/04/17 03:52:38;;;;;;;13.20;10.00;;;;;;;;;;5034179;28;20032;-73
2021/04/17 03:55:04;;;;;;;12.70;10.25;;;;;;;;;;5015828;28;20021;-74
2021/04/17 03:57:32;;;;;;;12.75;10.32;;;;;;;;;;5022217;28;20121;-73
2021/04/17 03:59:58;;;;;;;14.43;9.65;;;;;;;;;;5013490;28;20466;-73
2021/04/17 04:02:23;;;;;;;13.85;10.23;;;;;;;;;;4995142;28;20115;-72
2021/04/17 04:04:48;;;;;;;15.18;9.98;;;;;;;;;;5004060;28;20033;-71
2021/04/17 04:07:16;;;;;;;12.57;9.85;;;;;;;;;;5014468;28;20018;-71
2021/04/17 04:09:41;;;;;;;11.82;9.57;;;;;;;;;;5013982;28;20447;-73
2021/04/17 04:12:07;;;;;;;13.40;9.73;;;;;;;;;;5014172;28;20080;-73
2021/04/17 04:14:32;;;;;;;13.10;10.60;;;;;;;;;;5014547;28;20026;-73
2021/04/17 04:16:57;;;;;;;15.70;9.23;;;;;;;;;;5014549;28;20534;-73
2021/04/17 04:19:25;;;;;;;11.02;9.40;;;;;;;;;;5013674;28;20022;-72
2021/04/17 04:21:50;;;;;;;12.98;9.27;;;;;;;;;;5012965;28;20625;-72
2021/04/17 04:24:15;;;;;;;13.70;9.80;;;;;;;;;;5012930;28;20092;-71
2021/04/17 04:26:40;;;;;;;14.27;10.77;;;;;;;;;;5013224;28;20034;-72
2021/04/17 04:29:06;;;;;;;12.25;9.40;;;;;;;;;;5013279;28;20022;-72
2021/04/17 04:31:31;;;;;;;16.35;9.75;;;;;;;;;;5015837;28;20030;-72
2021/04/17 04:33:56;;;;;;;12.55;10.10;;;;;;;;;;5013243;28;20419;-72
2021/04/17 04:36:23;;;;;;;13.55;10.00;;;;;;;;;;5012674;28;20018;-72
2021/04/17 04:38:48;;;;;;;14.98;9.45;;;;;;;;;;5012149;28;20018;-72
2021/04/17 04:41:14;;;;;;;11.45;8.45;;;;;;;;;;5005535;28;20084;-72
2021/04/17 04:43:39;;;;;;;13.05;9.55;;;;;;;;;;5012954;28;20105;-72
2021/04/17 04:46:04;;;;;;;14.00;9.95;;;;;;;;;;5013327;28;20105;-72
2021/04/17 04:48:30;;;;;;;13.50;9.85;;;;;;;;;;5011876;28;20354;-72
2021/04/17 04:50:55;;;;;;;12.27;8.75;;;;;;;;;;5013158;28;20064;-72
2021/04/17 04:53:20;;;;;;;12.82;8.60;;;;;;;;;;5013355;28;20021;-73
2021/04/17 04:55:46;;;;;;;12.75;8.98;;;;;;;;;;5012989;28;20041;-72
2021/04/17 04:58:11;;;;;;;14.52;7.90;;;;;;;;;;5029239;28;20064;-72
2021/04/17 05:00:37;;;;;;;9.98;8.63;;;;;;;;;;5029669;28;20044;-71
2021/04/17 05:03:02;;;;;;;11.07;7.85;;;;;;;;;;5033165;28;20029;-70
2021/04/17 05:05:27;;;;;;;10.50;8.02;;;;;;;;;;5032463;28;20417;-70
2021/04/17 05:07:52;;;;;;;13.57;8.88;;;;;;;;;;5032607;28;20102;-73
2021/04/17 05:10:20;;;;;;;10.05;8.13;;;;;;;;;;5032631;28;20095;-73
2021/04/17 05:12:45;;;;;;;8.77;7.88;;;;;;;;;;5033003;28;20026;-73
2021/04/17 05:15:11;;;;;;;11.18;8.30;;;;;;;;;;5031817;28;20025;-72
2021/04/17 05:17:36;;;;;;;10.45;7.93;;;;;;;;;;5015501;28;20018;-72
2021/04/17 05:20:03;;;;;;;9.82;8.68;;;;;;;;;;5030801;28;20014;-72
2021/04/17 05:22:28;;;;;;;10.30;8.75;;;;;;;;;;5021443;28;20021;-72
2021/04/17 05:24:54;;;;;;;13.95;8.60;;;;;;;;;;5012122;28;20036;-69
2021/04/17 05:27:19;;;;;;;14.93;8.88;;;;;;;;;;5032119;28;20025;-69
2021/04/17 05:29:44;;;;;;;9.57;8.43;;;;;;;;;;5013941;28;20035;-68
2021/04/17 05:32:10;;;;;;;10.38;8.20;;;;;;;;;;5036281;28;20021;-68
2021/04/17 05:34:37;;;;;;;15.07;9.15;;;;;;;;;;5040454;28;20090;-69
2021/04/17 05:37:03;;;;;;;10.90;8.45;;;;;;;;;;5036617;28;20360;-68
2021/04/17 05:39:28;;;;;;;8.73;7.57;;;;;;;;;;5036674;28;20018;-68
2021/04/17 05:41:54;;;;;;;12.27;7.53;;;;;;;;;;5036332;28;20442;-69
2021/04/17 05:44:21;;;;;;;11.25;8.07;;;;;;;;;;5035099;28;20025;-69
2021/04/17 05:46:46;;;;;;;10.95;8.23;;;;;;;;;;5035232;28;20034;-69
2021/04/17 05:49:12;;;;;;;11.55;7.55;;;;;;;;;;5039986;28;20020;-69
2021/04/17 05:51:38;;;;;;;9.88;7.05;;;;;;;;;;5034310;28;20120;-69
2021/04/17 05:54:04;;;;;;;8.77;7.88;;;;;;;;;;5032765;28;20026;-70
2021/04/17 05:56:29;;;;;;;13.35;7.90;;;;;;;;;;5033021;28;20045;-69
2021/04/17 05:58:54;;;;;;;9.55;7.85;;;;;;;;;;5011616;28;20040;-69
2021/04/17 06:01:22;;;;;;;11.40;8.23;;;;;;;;;;5038241;28;20032;-69
2021/04/17 06:03:52;;;;;;;12.68;8.65;;;;;;;;;;5044001;28;20033;-69
2021/04/17 06:06:20;;;;;;;14.70;7.70;;;;;;;;;;5041019;28;20501;-69
2021/04/17 06:08:45;;;;;;;11.50;8.15;;;;;;;;;;5037297;28;20051;-69
2021/04/17 06:11:11;;;;;;;10.85;7.68;;;;;;;;;;5034378;28;20087;-69
2021/04/17 06:13:36;;;;;;;12.38;7.93;;;;;;;;;;5035853;28;20013;-69
2021/04/17 06:16:02;;;;;;;16.50;8.55;;;;;;;;;;5035527;28;20036;-69
2021/04/17 06:18:30;;;;;;;12.25;8.48;;;;;;;;;;5035304;28;20064;-69
2021/04/17 06:20:57;;;;;;;12.23;7.85;;;;;;;;;;5035721;28;20028;-69
2021/04/17 06:23:23;;;;;;;12.60;8.48;;;;;;;;;;5017715;28;20024;-69
2021/04/17 06:25:50;;;;;;;12.40;7.57;;;;;;;;;;5035782;28;20025;-69
2021/04/17 06:28:16;;;;;;;8.60;7.68;;;;;;;;;;5039533;28;20068;-69
2021/04/17 06:30:41;;;;;;;11.43;8.02;;;;;;;;;;5035162;28;20049;-69
2021/04/17 06:33:09;;;;;;;14.20;8.20;;;;;;;;;;5035486;28;20032;-69
2021/04/17 06:35:34;;;;;;;13.13;8.27;;;;;;;;;;5035427;28;20089;-72
2021/04/17 06:37:59;;;;;;;14.40;7.78;;;;;;;;;;5035910;28;20013;-71
2021/04/17 06:40:25;;;;;;;11.13;8.13;;;;;;;;;;5036020;28;20029;-69
2021/04/17 06:42:51;;;;;;;11.27;7.68;;;;;;;;;;5018505;28;20014;-70
2021/04/17 06:45:17;;;;;;;12.32;7.97;;;;;;;;;;5019067;28;20021;-70
2021/04/17 06:47:42;;;;;;;12.73;7.18;;;;;;;;;;5035804;28;20017;-71
2021/04/17 06:50:08;;;;;;;10.13;7.35;;;;;;;;;;5035959;28;20305;-72
2021/04/17 06:52:36;;;;;;;15.40;7.55;;;;;;;;;;5035441;28;20367;-71
2021/04/17 06:55:01;;;;;;;10.77;7.72;;;;;;;;;;5023406;28;20410;-72
2021/04/17 06:57:27;;;;;;;16.05;7.63;;;;;;;;;;5025377;28;20069;-70
2021/04/17 06:59:52;;;;;;;8.73;6.40;;;;;;;;;;5040956;28;20017;-71
2021/04/17 07:02:18;;;;;;;12.20;6.88;;;;;;;;;;5039113;28;20032;-70
2021/04/17 07:04:43;;;;;;;12.77;7.20;;;;;;;;;;5040021;28;20511;-70
2021/04/17 07:07:12;;;;;;;10.57;7.10;;;;;;;;;;5037173;28;20054;-69
2021/04/17 07:09:38;;;;;;;8.32;6.50;;;;;;;;;;5037166;28;20028;-70
2021/04/17 07:12:03;;;;;;;9.75;6.22;;;;;;;;;;5034701;28;20354;-70
2021/04/17 07:14:40;;;;;;;13.43;6.50;;;;;;;;;;5035628;28;20140;-70
2021/04/17 07:17:09;;;;;;;8.40;5.60;;;;;;;;;;5033520;28;20028;-69
2021/04/17 07:19:43;;;;;;;8.60;5.85;;;;;;;;;;5034989;28;20024;-69
2021/04/17 07:22:22;;;;;;;8.55;6.47;;;;;;;;;;5034522;28;20013;-70
2021/04/17 07:24:48;;;;;;;9.68;5.93;;;;;;;;;;5034993;28;20048;-70
2021/04/17 07:27:31;;;;;;;13.52;5.68;;;;;;;;;;5028538;28;20017;-70
2021/04/17 07:29:57;;;;;;;8.43;5.82;;;;;;;;;;5017255;28;20034;-69
2021/04/17 07:32:22;;;;;;;9.80;6.32;;;;;;;;;;5034705;28;20355;-69
2021/04/17 07:35:06;;;;;;;8.13;5.90;;;;;;;;;;5034231;28;20507;-69
2021/04/17 07:37:31;;;;;;;9.38;5.50;;;;;;;;;;5033736;28;20578;-70
2021/04/17 07:40:13;;;;;;;9.60;5.32;;;;;;;;;;5034154;28;20030;-69
2021/04/17 07:42:38;;;;;;;7.80;5.15;;;;;;;;;;5033615;28;20095;-68
2021/04/17 07:45:16;;;;;;;7.82;5.03;;;;;;;;;;5034315;28;20397;-67
2021/04/17 07:47:42;;;;;;;6.85;4.43;;;;;;;;;;5033815;28;20041;-68
2021/04/17 07:50:08;;;;;;;7.50;4.70;;;;;;;;;;5034074;28;20382;-68
2021/04/17 07:52:35;;;;;;;7.43;5.13;;;;;;;;;;5033323;28;20022;-68
2021/04/17 07:55:00;;;;;;;6.25;4.57;;;;;;;;;;5032474;28;20013;-67
2021/04/17 07:57:53;;;;;;;8.75;4.95;;;;;;;;;;5033480;28;20044;-67
2021/04/17 08:00:20;;;;;;;7.10;4.50;;;;;;;;;;5032485;28;20018;-67
2021/04/17 08:02:46;;;;;;;9.68;4.80;;;;;;;;;;5032960;28;20031;-68
2021/04/17 08:05:12;;;;;;;8.60;4.63;;;;;;;;;;5012826;28;20022;-68
2021/04/17 08:07:40;;;;;;;7.55;4.97;;;;;;;;;;5033606;28;20043;-70
2021/04/17 08:10:13;;;;;;;7.65;4.65;;;;;;;;;;5033340;28;20029;-70
2021/04/17 08:12:39;;;;;;;8.40;4.32;;;;;;;;;;5032020;28;20033;-71
2021/04/17 08:15:06;;;;;;;10.52;4.78;;;;;;;;;;5033350;28;20013;-69
2021/04/17 08:17:31;;;;;;;9.35;4.53;;;;;;;;;;5032956;28;20056;-69
2021/04/17 08:19:57;;;;;;;6.18;4.75;;;;;;;;;;5033490;28;20053;-70
2021/04/17 08:22:25;;;;;;;6.53;4.57;;;;;;;;;;5033191;28;20507;-70
2021/04/17 08:24:53;;;;;;;9.00;4.72;;;;;;;;;;5015422;28;20098;-70
2021/04/17 08:27:19;;;;;;;6.78;3.95;;;;;;;;;;5031632;28;20054;-71
2021/04/17 08:29:51;;;;;;;7.72;3.88;;;;;;;;;;5033381;28;20090;-71
2021/04/17 08:32:35;;;;;;;11.07;3.90;;;;;;;;;;5015854;28;20373;-72
2021/04/17 08:35:00;;;;;;;12.75;3.65;;;;;;;;;;5032660;28;20024;-71
2021/04/17 08:37:26;;;;;;;8.60;3.75;;;;;;;;;;5030526;28;20025;-70
2021/04/17 08:39:53;;;;;;;11.05;4.07;;;;;;;;;;5027927;28;20017;-71
2021/04/17 08:42:36;;;;;;;8.60;3.78;;;;;;;;;;5032069;28;20025;-71
2021/04/17 08:45:09;;;;;;;5.95;3.33;;;;;;;;;;5037206;28;20025;-71
2021/04/17 08:47:48;;;;;;;6.32;2.80;;;;;;;;;;5012889;28;20040;-72
2021/04/17 08:50:23;;;;;;;5.10;2.60;;;;;;;;;;5031076;28;20053;-71
2021/04/17 08:52:55;;;;;;;4.95;3.28;;;;;;;;;;5032757;28;20040;-71
2021/04/17 08:55:20;;;;;;;4.80;3.05;;;;;;;;;;5031451;28;20034;-71
2021/04/17 08:57:45;;;;;;;6.78;3.03;;;;;;;;;;5033217;28;20048;-70
2021/04/17 09:00:11;;;;;;;7.28;2.95;;;;;;;;;;5033413;28;20020;-71
2021/04/17 09:02:46;;;;;;;7.35;3.20;;;;;;;;;;5030744;28;20018;-71
2021/04/17 09:05:16;;;;;;;6.72;3.13;;;;;;;;;;5034923;28;20033;-71
2021/04/17 09:07:43;;;;;;;5.80;2.45;;;;;;;;;;5033278;28;20013;-71
2021/04/17 09:10:31;;;;;;;5.68;2.80;;;;;;;;;;5009475;28;20366;-70
2021/04/17 09:13:20;;;;;;;5.07;2.80;;;;;;;;;;5039301;28;20026;-70
2021/04/17 09:15:56;;;;;;;7.65;2.78;;;;;;;;;;5029999;28;20018;-70
2021/04/17 09:18:37;;;;;;;4.45;2.70;;;;;;;;;;5031913;28;20438;-71
2021/04/17 09:21:08;;;;;;;4.40;2.90;;;;;;;;;;5031901;28;20462;-72
2021/04/17 09:23:47;;;;;;;6.47;3.28;;;;;;;;;;5032207;28;20018;-71
2021/04/17 09:26:33;;;;;;;7.10;3.10;;;;;;;;;;5032784;28;20422;-71
2021/04/17 09:29:00;;;;;;;7.15;3.20;;;;;;;;;;5032519;28;20083;-71
2021/04/17 09:31:27;;;;;;;4.95;2.97;;;;;;;;;;5014971;28;20037;-71
2021/04/17 09:34:00;;;;;;;7.72;3.33;;;;;;;;;;5032621;28;20028;-71
2021/04/17 09:36:25;;;;;;;5.97;3.20;;;;;;;;;;5032903;28;20017;-70
2021/04/17 09:38:52;;;;;;;7.13;2.95;;;;;;;;;;5032814;28;20079;-71
2021/04/17 09:41:17;;;;;;;4.72;2.53;;;;;;;;;;5031884;28;20092;-71
2021/04/17 09:43:43;;;;;;;6.15;2.78;;;;;;;;;;5025997;28;20339;-73
2021/04/17 09:46:18;;;;;;;4.70;2.70;;;;;;;;;;5013354;28;20056;-71
2021/04/17 09:48:44;;;;;;;2.93;2.60;;;;;;;;;;5032778;28;20021;-70
2021/04/17 09:51:20;;;;;;;4.68;2.83;;;;;;;;;;5041024;28;20458;-72
2021/04/17 09:53:46;;;;;;;4.60;2.78;;;;;;;;;;5035308;28;20021;-71
2021/04/17 09:56:13;;;;;;;3.50;3.08;;;;;;;;;;5011962;28;20038;-70
2021/04/17 09:58:41;;;;;;;7.47;3.25;;;;;;;;;;5013466;28;20383;-71
2021/04/17 10:01:09;;;;;;;5.90;3.05;;;;;;;;;;5013040;28;20075;-71
2021/04/17 10:03:36;;;;;;;5.68;2.70;;;;;;;;;;5024500;28;20037;-73
2021/04/17 10:06:02;;;;;;;4.78;2.83;;;;;;;;;;5015458;28;20018;-72
2021/04/17 10:08:28;;;;;;;6.25;2.72;;;;;;;;;;5023007;28;20018;-72
2021/04/17 10:10:54;;;;;;;5.88;2.78;;;;;;;;;;5012945;28;20018;-71
2021/04/17 10:13:38;;;;;;;3.97;2.75;;;;;;;;;;5002384;28;20018;-72
2021/04/17 10:16:03;;;;;;;4.85;2.80;;;;;;;;;;5031916;28;20022;-72
2021/04/17 10:18:31;;;;;;;7.70;3.03;;;;;;;;;;5032765;28;20458;-72
2021/04/17 10:20:56;;;;;;;5.78;2.60;;;;;;;;;;5018408;28;20029;-72
2021/04/17 10:23:21;;;;;;;7.97;3.28;;;;;;;;;;5031423;28;20018;-71
2021/04/17 10:25:46;;;;;;;4.68;2.80;;;;;;;;;;5052354;28;20017;-71
2021/04/17 10:28:16;;;;;;;5.55;3.13;;;;;;;;;;5049793;28;20025;-72
2021/04/17 10:30:47;;;;;;;4.78;3.25;;;;;;;;;;5033528;28;20028;-71
2021/04/17 10:33:14;;;;;;;9.90;3.65;;;;;;;;;;5038416;28;20086;-70
2021/04/17 10:35:39;;;;;;;5.80;3.20;;;;;;;;;;5040978;28;20504;-71
2021/04/17 10:38:04;;;;;;;4.72;2.92;;;;;;;;;;5035709;28;20025;-71
2021/04/17 10:40:30;;;;;;;4.70;2.80;;;;;;;;;;5035095;28;20021;-71
2021/04/17 10:42:56;;;;;;;5.93;3.22;;;;;;;;;;5035870;28;20267;-71
2021/04/17 10:45:24;;;;;;;4.55;3.25;;;;;;;;;;5034737;28;20427;-73
2021/04/17 10:48:13;;;;;;;6.30;2.60;;;;;;;;;;5037889;28;20025;-72
2021/04/17 10:50:40;;;;;;;5.55;3.08;;;;;;;;;;5048370;28;20100;-72
2021/04/17 10:53:10;;;;;;;4.53;3.00;;;;;;;;;;5019395;28;20033;-72
2021/04/17 10:55:41;;;;;;;6.72;4.47;;;;;;;;;;5017712;28;20036;-72
2021/04/17 10:58:18;;;;;;;5.68;3.90;;;;;;;;;;5017737;28;20067;-72
2021/04/17 11:00:46;;;;;;;14.70;8.38;;;;;;;;;;5035256;28;20009;-72
2021/04/17 11:03:11;;;;;;;4.28;3.10;;;;;;;;;;5033526;28;20129;-71
2021/04/17 11:05:37;;;;;;;10.03;7.83;;;;;;;;;;5034021;28;20053;-71
2021/04/17 11:08:03;;;;;;;6.83;2.73;;;;;;;;;;5035326;28;20025;-71
2021/04/17 11:10:35;;;;;;;6.20;2.78;;;;;;;;;;5035506;28;20041;-71
2021/04/17 11:13:00;;;;;;;9.75;3.53;;;;;;;;;;5040524;28;20021;-71
2021/04/17 11:15:27;;;;;;;3.95;2.45;;;;;;;;;;5048495;28;20028;-72
2021/04/17 11:18:11;;;;;;;5.03;2.78;;;;;;;;;;5035243;28;20017;-71
2021/04/17 11:20:50;;;;;;;3.78;2.60;;;;;;;;;;5039362;28;20066;-71
2021/04/17 11:23:33;;;;;;;4.43;2.90;;;;;;;;;;5029430;28;20022;-71
2021/04/17 11:25:59;;;;;;;4.60;3.03;;;;;;;;;;5027665;28;20025;-70
2021/04/17 11:28:26;;;;;;;4.97;2.72;;;;;;;;;;5034054;28;20017;-71
2021/04/17 11:30:51;;;;;;;6.55;2.75;;;;;;;;;;5004720;28;20454;-71
2021/04/17 11:33:19;;;;;;;10.05;2.60;;;;;;;;;;5014858;28;20087;-71
2021/04/17 11:35:45;;;;;;;4.75;2.22;;;;;;;;;;5039894;28;20017;-72
2021/04/17 11:38:10;;;;;;;4.73;2.47;;;;;;;;;;5043425;28;20531;-71
2021/04/17 11:40:35;;;;;;;5.85;2.47;;;;;;;;;;5041961;28;20276;-72
2021/04/17 11:43:01;;;;;;;4.50;2.30;;;;;;;;;;5025708;28;20024;-72
2021/04/17 11:45:26;;;;;;;3.27;2.20;;;;;;;;;;5027625;28;20144;-71
2021/04/17 11:47:54;;;;;;;6.03;2.70;;;;;;;;;;5023632;28;20268;-71
2021/04/17 11:50:19;;;;;;;6.03;2.55;;;;;;;;;;5020594;28;20033;-71
2021/04/17 11:52:45;;;;;;;5.95;2.72;;;;;;;;;;5038893;28;20029;-71
2021/04/17 11:55:13;;;;;;;4.65;2.60;;;;;;;;;;5035900;28;20484;-72
2021/04/17 11:57:40;;;;;;;6.38;2.45;;;;;;;;;;5031979;28;20037;-71
2021/04/17 12:00:06;;;;;;;4.45;2.60;;;;;;;;;;5034162;28;20100;-72
2021/04/17 12:02:31;;;;;;;4.50;2.60;;;;;;;;;;5028669;28;20113;-72
2021/04/17 12:05:02;;;;;;;3.85;2.30;;;;;;;;;;5014240;28;20025;-72
2021/04/17 12:07:27;;;;;;;6.43;2.28;;;;;;;;;;4996864;28;20030;-72
2021/04/17 12:09:53;;;;;;;4.70;2.83;;;;;;;;;;5020322;28;20124;-70
2021/04/17 12:12:18;;;;;;;7.25;3.10;;;;;;;;;;5033974;28;20312;-70
2021/04/17 12:14:44;;;;;;;6.47;2.90;;;;;;;;;;5034193;28;20013;-72
2021/04/17 12:17:09;;;;;;;5.07;3.13;;;;;;;;;;5017073;28;20574;-73
2021/04/17 12:19:34;;;;;;;5.75;2.92;;;;;;;;;;5033308;28;20268;-73
2021/04/17 12:22:00;;;;;;;4.80;2.93;;;;;;;;;;5014129;28;20069;-73
2021/04/17 12:24:25;;;;;;;6.05;2.95;;;;;;;;;;5020241;28;20276;-73
2021/04/17 12:26:51;;;;;;;8.55;3.03;;;;;;;;;;4998978;28;20036;-72
2021/04/17 12:29:16;;;;;;;7.90;2.90;;;;;;;;;;5032938;28;20128;-72
2021/04/17 12:31:44;;;;;;;4.37;2.90;;;;;;;;;;5033469;28;20017;-72
2021/04/17 12:34:11;;;;;;;6.45;3.03;;;;;;;;;;5018078;28;20268;-72
2021/04/17 12:36:36;;;;;;;4.80;2.55;;;;;;;;;;5033546;28;20031;-73
2021/04/17 12:39:05;;;;;;;5.20;2.50;;;;;;;;;;5031415;28;20009;-72
2021/04/17 12:41:32;;;;;;;4.05;2.53;;;;;;;;;;5033313;28;20033;-72
2021/04/17 12:44:01;;;;;;;4.88;3.13;;;;;;;;;;5033282;28;20446;-72
2021/04/17 12:46:27;;;;;;;4.60;3.40;;;;;;;;;;5033935;28;20088;-72
2021/04/17 12:48:52;;;;;;;5.07;2.72;;;;;;;;;;5005096;28;20485;-70
2021/04/17 12:51:17;;;;;;;5.72;2.70;;;;;;;;;;5029569;28;20554;-69
2021/04/17 12:53:43;;;;;;;3.90;2.53;;;;;;;;;;5042106;28;20148;-71
2021/04/17 12:56:08;;;;;;;5.05;3.10;;;;;;;;;;5020784;28;20100;-69
2021/04/17 12:58:38;;;;;;;5.70;2.95;;;;;;;;;;5038586;28;20102;-71
2021/04/17 13:01:05;;;;;;;4.18;2.67;;;;;;;;;;5030178;28;20064;-70
2021/04/17 13:03:31;;;;;;;5.22;2.80;;;;;;;;;;5033856;28;20021;-70
2021/04/17 13:05:56;;;;;;;3.72;2.30;;;;;;;;;;5033245;28;20023;-70
2021/04/17 13:08:23;;;;;;;4.87;2.30;;;;;;;;;;5015403;28;20036;-70
2021/04/17 13:10:49;;;;;;;3.63;2.40;;;;;;;;;;5020565;28;20270;-70
2021/04/17 13:13:14;;;;;;;5.95;2.33;;;;;;;;;;5043720;28;20030;-70
2021/04/17 13:15:46;;;;;;;5.20;2.25;;;;;;;;;;5032830;28;20025;-70
2021/04/17 13:18:11;;;;;;;6.00;2.70;;;;;;;;;;5042814;28;20032;-70
2021/04/17 13:20:41;;;;;;;4.10;2.25;;;;;;;;;;5045164;28;20032;-69
2021/04/17 13:23:06;;;;;;;3.47;2.20;;;;;;;;;;5031459;28;21254;-70
2021/04/17 13:25:31;;;;;;;5.75;2.88;;;;;;;;;;5015621;28;20029;-70
2021/04/17 13:27:56;;;;;;;4.95;2.40;;;;;;;;;;5033314;28;20060;-70
2021/04/17 13:30:24;;;;;;;5.45;2.78;;;;;;;;;;5038576;28;20405;-70
2021/04/17 13:32:50;;;;;;;4.65;2.85;;;;;;;;;;5033130;28;20053;-70
2021/04/17 13:35:15;;;;;;;7.82;2.90;;;;;;;;;;5040403;28;20052;-70
2021/04/17 13:37:41;;;;;;;5.97;2.65;;;;;;;;;;5011350;28;20036;-70
2021/04/17 13:40:07;;;;;;;4.20;2.35;;;;;;;;;;5031614;28;20028;-70
2021/04/17 13:42:37;;;;;;;3.95;2.55;;;;;;;;;;5032566;28;20130;-69
2021/04/17 13:45:03;;;;;;;6.78;2.72;;;;;;;;;;5031002;28;20018;-69
2021/04/17 13:47:31;;;;;;;4.90;2.42;;;;;;;;;;5029995;28;20377;-69
2021/04/17 13:49:56;;;;;;;4.53;2.80;;;;;;;;;;5036308;28;20505;-69
2021/04/17 13:52:21;;;;;;;5.82;2.72;;;;;;;;;;5038787;28;20109;-69
2021/04/17 13:54:49;;;;;;;5.63;2.88;;;;;;;;;;5035947;28;20074;-69
2021/04/17 13:57:16;;;;;;;6.82;2.80;;;;;;;;;;5013074;28;20038;-69
2021/04/17 13:59:41;;;;;;;7.20;3.25;;;;;;;;;;5023524;28;20369;-68
2021/04/17 14:02:07;;;;;;;5.25;3.17;;;;;;;;;;5016059;28;20025;-70
2021/04/17 14:04:32;;;;;;;9.07;3.35;;;;;;;;;;5001634;28;20025;-69
2021/04/17 14:07:00;;;;;;;8.13;3.42;;;;;;;;;;5012815;28;20034;-70
2021/04/17 14:09:25;;;;;;;5.85;3.05;;;;;;;;;;4999544;28;20034;-71
2021/04/17 14:11:51;;;;;;;9.02;3.17;;;;;;;;;;5016349;28;20037;-70
2021/04/17 14:14:16;;;;;;;9.70;3.90;;;;;;;;;;5015938;28;20402;-71
2021/04/17 14:16:42;;;;;;;5.13;3.05;;;;;;;;;;5015943;28;20028;-69
2021/04/17 14:19:13;;;;;;;5.53;3.15;;;;;;;;;;5018643;28;20014;-71
2021/04/17 14:21:40;;;;;;;5.80;2.95;;;;;;;;;;5016045;28;20029;-70
2021/04/17 14:24:06;;;;;;;5.93;3.08;;;;;;;;;;5015736;28;20021;-71
2021/04/17 14:26:31;;;;;;;5.85;3.00;;;;;;;;;;5016394;28;20472;-71
2021/04/17 14:28:59;;;;;;;9.85;3.47;;;;;;;;;;5015013;28;20101;-72
2021/04/17 14:31:24;;;;;;;7.53;3.10;;;;;;;;;;5013120;28;20068;-71
2021/04/17 14:33:50;;;;;;;7.68;3.03;;;;;;;;;;5016223;28;20451;-70
2021/04/17 14:36:15;;;;;;;8.82;3.35;;;;;;;;;;4998609;28;20084;-70